createdAt,value
2023-04-28T00:00:31.508Z,7.74
2023-04-28T00:02:59.126Z,7.68
2023-04-28T00:05:27.341Z,7.73
2023-04-28T00:07:55.185Z,7.71
2023-04-28T00:10:22.309Z,7.63
2023-04-28T00:12:49.794Z,7.65
2023-04-28T00:15:18.400Z,7.59
2023-04-28T00:17:45.691Z,7.61
2023-04-28T00:20:13.276Z,7.63
2023-04-28T00:22:41.229Z,7.60
2023-04-28T00:25:09.229Z,7.58
2023-04-28T00:27:37.551Z,7.56
2023-04-28T00:30:05.362Z,7.56
2023-04-28T00:32:32.696Z,7.58
2023-04-28T00:35:01.833Z,7.56
2023-04-28T00:37:29.452Z,7.51
2023-04-28T00:39:57.327Z,7.53
2023-04-28T00:42:24.722Z,7.50
2023-04-28T00:44:51.728Z,7.51
2023-04-28T00:47:19.836Z,7.50
2023-04-28T00:49:49.756Z,7.45
2023-04-28T00:52:17.375Z,7.47
2023-04-28T00:54:44.803Z,7.43
2023-04-28T00:57:11.930Z,7.35
2023-04-28T00:59:38.762Z,7.38
2023-04-28T01:02:08.073Z,7.37
2023-04-28T01:04:37.653Z,7.33
2023-04-28T01:07:05.174Z,7.32
2023-04-28T01:09:33.070Z,7.22
2023-04-28T01:12:00.806Z,7.22
2023-04-28T01:14:49.633Z,7.17
2023-04-28T01:17:18.334Z,7.11
2023-04-28T01:19:45.502Z,7.07
2023-04-28T01:22:16.118Z,6.98
2023-04-28T01:24:44.367Z,6.91
2023-04-28T01:27:13.740Z,6.81
2023-04-28T01:29:41.947Z,6.68
2023-04-28T01:32:10.239Z,6.59
2023-04-28T01:34:37.721Z,6.50
2023-04-28T01:37:06.638Z,6.29
2023-04-28T01:39:35.362Z,6.11
2023-04-28T01:42:03.951Z,5.98
2023-04-28T01:44:31.059Z,5.80
2023-04-28T01:46:58.115Z,5.66
2023-04-28T01:49:25.757Z,5.47
2023-04-28T01:51:53.071Z,5.37
2023-04-28T01:54:21.158Z,5.22
2023-04-28T01:56:51.536Z,5.09
2023-04-28T01:59:21.102Z,4.96
2023-04-28T02:01:48.493Z,4.83
2023-04-28T02:04:16.387Z,4.70
2023-04-28T02:06:43.964Z,4.59
2023-04-28T02:09:13.321Z,4.45
2023-04-28T02:11:40.933Z,4.38
2023-04-28T02:14:10.914Z,4.27
2023-04-28T02:16:38.442Z,4.16
2023-04-28T02:19:05.803Z,4.06
2023-04-28T02:21:33.526Z,3.96
2023-04-28T02:24:01.092Z,3.87
2023-04-28T02:26:29.678Z,3.76
2023-04-28T02:28:57.763Z,3.68
2023-04-28T02:31:25.842Z,3.61
2023-04-28T02:33:54.861Z,3.54
2023-04-28T02:36:23.152Z,3.52
2023-04-28T02:38:51.084Z,3.53
2023-04-28T02:41:19.182Z,3.51
2023-04-28T02:43:46.656Z,3.49
2023-04-28T02:46:15.380Z,3.54
2023-04-28T02:48:45.037Z,3.55
2023-04-28T02:51:14.629Z,3.53
2023-04-28T02:53:43.590Z,3.55
2023-04-28T02:56:12.145Z,3.59
2023-04-28T02:58:40.544Z,3.67
2023-04-28T03:01:11.737Z,3.71
2023-04-28T03:03:41.447Z,3.76
2023-04-28T03:06:10.738Z,3.78
2023-04-28T03:08:38.507Z,3.85
2023-04-28T03:11:07.151Z,3.87
2023-04-28T03:13:34.259Z,3.93
2023-04-28T03:16:02.656Z,3.94
2023-04-28T03:18:29.790Z,4.05
2023-04-28T03:20:59.467Z,4.10
2023-04-28T03:23:29.044Z,4.19
2023-04-28T03:25:57.205Z,4.30
2023-04-28T03:28:25.637Z,4.37
2023-04-28T03:30:55.279Z,4.44
2023-04-28T03:33:22.901Z,4.50
2023-04-28T03:35:51.328Z,4.59
2023-04-28T03:38:26.196Z,4.71
2023-04-28T03:40:54.649Z,4.86
2023-04-28T03:43:54.217Z,4.90
2023-04-28T03:46:26.688Z,5.03
2023-04-28T03:48:56.422Z,5.25
2023-04-28T03:51:24.579Z,5.61
2023-04-28T03:53:54.373Z,6.01
2023-04-28T03:56:22.667Z,6.47
2023-04-28T03:58:50.958Z,6.92
2023-04-28T04:01:19.160Z,7.35
2023-04-28T04:03:50.265Z,7.78
2023-04-28T04:06:27.651Z,8.18
2023-04-28T04:08:56.233Z,8.57
2023-04-28T04:11:23.632Z,8.87
2023-04-28T04:13:50.960Z,9.13
2023-04-28T04:16:19.293Z,9.39
2023-04-28T04:18:47.816Z,9.60
2023-04-28T04:21:19.585Z,9.73
2023-04-28T04:23:50.025Z,9.78
2023-04-28T04:26:17.204Z,9.90
2023-04-28T04:28:44.250Z,9.82
2023-04-28T04:31:11.592Z,9.83
2023-04-28T04:33:40.087Z,9.92
2023-04-28T04:36:07.965Z,10.05
2023-04-28T04:38:35.464Z,10.18
2023-04-28T04:41:12.196Z,10.41
2023-04-28T04:43:42.183Z,10.78
2023-04-28T04:46:09.817Z,11.11
2023-04-28T04:48:36.738Z,11.50
2023-04-28T04:51:03.849Z,11.85
2023-04-28T04:53:31.735Z,12.05
2023-04-28T04:55:59.213Z,12.34
2023-04-28T04:58:27.180Z,12.69
2023-04-28T05:01:12.610Z,12.83
2023-04-28T05:03:40.860Z,12.95
2023-04-28T05:06:11.255Z,12.89
2023-04-28T05:08:44.785Z,12.86
2023-04-28T05:11:11.904Z,12.92
2023-04-28T05:13:41.830Z,13.27
2023-04-28T05:16:09.080Z,13.59
2023-04-28T05:18:38.588Z,14.05
2023-04-28T05:21:06.455Z,14.41
2023-04-28T05:23:34.068Z,14.75
2023-04-28T05:26:05.480Z,14.88
2023-04-28T05:28:33.353Z,14.70
2023-04-28T05:31:02.015Z,14.75
2023-04-28T05:33:30.931Z,15.00
2023-04-28T05:35:58.957Z,15.17
2023-04-28T05:38:26.449Z,15.76
2023-04-28T05:40:54.974Z,16.06
2023-04-28T05:43:22.505Z,16.32
2023-04-28T05:45:53.348Z,16.28
2023-04-28T05:48:20.755Z,16.31
2023-04-28T05:50:48.026Z,16.36
2023-04-28T05:53:15.165Z,16.60
2023-04-28T05:55:42.393Z,16.76
2023-04-28T05:58:10.781Z,16.73
2023-04-28T06:00:38.554Z,16.74
2023-04-28T06:03:07.269Z,16.96
2023-04-28T06:05:37.418Z,17.32
2023-04-28T06:08:08.166Z,17.43
2023-04-28T06:10:38.140Z,17.03
2023-04-28T06:13:06.507Z,16.27
2023-04-28T06:15:34.154Z,15.73
2023-04-28T06:18:02.114Z,15.70
2023-04-28T06:20:31.202Z,16.07
2023-04-28T06:22:58.932Z,16.36
2023-04-28T06:25:27.310Z,16.62
2023-04-28T06:27:54.966Z,16.87
2023-04-28T06:30:25.091Z,17.17
2023-04-28T06:32:52.981Z,17.45
2023-04-28T06:35:21.677Z,17.84
2023-04-28T06:37:49.093Z,18.07
2023-04-28T06:40:16.442Z,18.12
2023-04-28T06:42:51.146Z,18.45
2023-04-28T06:45:24.924Z,18.50
2023-04-28T06:47:52.720Z,18.57
2023-04-28T06:50:20.424Z,18.46
2023-04-28T06:52:47.888Z,18.81
2023-04-28T06:55:20.354Z,19.11
2023-04-28T06:57:47.487Z,19.42
2023-04-28T07:00:15.168Z,19.57
2023-04-28T07:02:43.093Z,19.95
2023-04-28T07:05:11.123Z,20.12
2023-04-28T07:07:41.454Z,19.97
2023-04-28T07:10:09.373Z,19.20
2023-04-28T07:12:37.088Z,19.59
2023-04-28T07:15:04.457Z,19.86
2023-04-28T07:17:31.369Z,20.33
2023-04-28T07:19:58.469Z,20.69
2023-04-28T07:22:25.857Z,20.84
2023-04-28T07:24:53.504Z,21.25
2023-04-28T07:27:20.886Z,20.93
2023-04-28T07:29:48.400Z,20.81
2023-04-28T07:32:15.791Z,20.38
2023-04-28T07:34:43.893Z,20.53
2023-04-28T07:37:12.473Z,20.42
2023-04-28T07:39:42.594Z,20.43
2023-04-28T07:42:10.932Z,20.52
2023-04-28T07:44:38.610Z,20.26
2023-04-28T07:47:06.735Z,20.47
2023-04-28T07:49:33.934Z,20.80
2023-04-28T07:52:01.350Z,21.03
2023-04-28T07:54:29.947Z,20.88
2023-04-28T07:57:00.483Z,21.13
2023-04-28T07:59:27.652Z,21.44
2023-04-28T08:01:54.555Z,21.94
2023-04-28T08:04:22.378Z,22.03
2023-04-28T08:06:51.540Z,21.51
2023-04-28T08:09:20.392Z,21.98
2023-04-28T08:11:47.425Z,22.25
2023-04-28T08:14:14.579Z,22.78
2023-04-28T08:16:42.358Z,23.13
2023-04-28T08:19:13.233Z,23.89
2023-04-28T08:21:39.989Z,23.03
2023-04-28T08:24:11.183Z,21.24
2023-04-28T08:26:43.783Z,21.61
2023-04-28T08:29:11.080Z,22.17
2023-04-28T08:31:39.134Z,22.65
2023-04-28T08:34:07.427Z,23.22
2023-04-28T08:36:35.474Z,22.73
2023-04-28T08:39:04.444Z,22.07
2023-04-28T08:41:33.372Z,22.53
2023-04-28T08:44:01.509Z,22.29
2023-04-28T08:46:31.274Z,21.58
2023-04-28T08:49:04.473Z,21.68
2023-04-28T08:51:37.831Z,22.18
2023-04-28T08:56:39.202Z,22.18
2023-04-28T08:59:06.617Z,21.70
2023-04-28T09:01:34.143Z,20.75
2023-04-28T09:04:03.241Z,21.16
2023-04-28T09:06:53.694Z,21.49
2023-04-28T09:09:33.304Z,21.59
2023-04-28T09:12:04.285Z,21.85
2023-04-28T09:14:33.182Z,21.86
2023-04-28T09:17:00.895Z,21.74
2023-04-28T09:19:41.105Z,21.57
2023-04-28T09:22:24.688Z,22.72
2023-04-28T09:24:54.309Z,23.91
2023-04-28T09:27:28.510Z,23.64
2023-04-28T09:29:55.982Z,23.13
2023-04-28T09:32:24.450Z,22.40
2023-04-28T09:34:53.900Z,22.23
2023-04-28T09:37:24.358Z,22.35
2023-04-28T09:39:54.344Z,23.42
2023-04-28T09:42:38.995Z,24.62
2023-04-28T09:45:07.885Z,24.18
2023-04-28T09:47:38.538Z,22.85
2023-04-28T09:50:12.704Z,22.17
2023-04-28T09:52:41.417Z,22.47
2023-04-28T09:55:12.197Z,23.30
2023-04-28T09:57:40.123Z,24.59
2023-04-28T10:00:09.449Z,25.10
2023-04-28T10:05:10.213Z,23.74
2023-04-28T10:07:38.157Z,23.11
2023-04-28T10:10:07.066Z,22.92
2023-04-28T10:12:35.331Z,23.44
2023-04-28T10:15:12.970Z,24.22
2023-04-28T10:17:44.185Z,25.43
2023-04-28T10:20:12.960Z,26.72
2023-04-28T10:23:14.848Z,26.92
2023-04-28T10:25:50.425Z,26.23
2023-04-28T10:28:18.818Z,24.69
2023-04-28T10:31:16.030Z,24.38
2023-04-28T10:33:43.966Z,24.24
2023-04-28T10:36:11.607Z,24.75
2023-04-28T10:41:56.440Z,24.50
2023-04-28T10:44:30.056Z,23.77
2023-04-28T10:47:06.734Z,24.43
2023-04-28T10:49:58.883Z,24.95
2023-04-28T10:52:42.194Z,25.79
2023-04-28T10:55:30.854Z,26.85
2023-04-28T10:58:36.452Z,27.22
2023-04-28T11:01:21.980Z,27.35
2023-04-28T11:03:54.462Z,26.58
2023-04-28T11:06:32.469Z,25.49
2023-04-28T11:09:15.104Z,25.45
2023-04-28T11:12:01.253Z,26.52
2023-04-28T11:14:34.714Z,27.12
2023-04-28T11:17:06.673Z,27.18
2023-04-28T11:19:44.679Z,27.52
2023-04-28T11:22:20.137Z,27.85
2023-04-28T11:25:05.607Z,28.52
2023-04-28T11:27:34.039Z,28.68
2023-04-28T11:30:02.137Z,28.21
2023-04-28T11:32:36.663Z,28.76
2023-04-28T11:35:11.493Z,29.55
2023-04-28T11:37:46.776Z,29.05
2023-04-28T11:40:17.294Z,27.28
2023-04-28T11:42:49.695Z,26.15
2023-04-28T11:45:16.855Z,25.09
2023-04-28T11:47:43.706Z,24.78
2023-04-28T11:50:11.168Z,24.76
2023-04-28T11:52:53.690Z,25.08
2023-04-28T11:55:29.039Z,26.00
2023-04-28T12:01:12.430Z,27.37
2023-04-28T12:03:52.495Z,26.87
2023-04-28T12:06:20.398Z,26.04
2023-04-28T12:08:47.773Z,25.32
2023-04-28T12:11:19.945Z,24.46
2023-04-28T12:14:04.580Z,23.45
2023-04-28T12:16:44.548Z,22.35
2023-04-28T12:19:12.849Z,22.07
2023-04-28T12:21:41.684Z,22.25
2023-04-28T12:24:16.611Z,22.02
2023-04-28T12:26:43.795Z,21.10
2023-04-28T12:29:42.920Z,20.39
2023-04-28T12:32:12.701Z,20.15
2023-04-28T12:34:42.117Z,20.05
2023-04-28T12:37:09.896Z,20.25
2023-04-28T12:39:39.818Z,20.64
2023-04-28T12:42:08.186Z,20.88
2023-04-28T12:44:38.659Z,21.20
2023-04-28T12:47:12.501Z,21.78
2023-04-28T12:49:52.465Z,22.46
2023-04-28T12:52:26.234Z,22.69
2023-04-28T12:55:06.118Z,23.43
2023-04-28T12:57:33.435Z,23.96
2023-04-28T13:00:01.858Z,23.58
2023-04-28T13:02:34.807Z,23.40
2023-04-28T13:05:03.556Z,22.71
2023-04-28T13:07:34.204Z,21.56
2023-04-28T13:10:02.124Z,20.81
2023-04-28T13:12:33.550Z,20.64
2023-04-28T13:15:09.979Z,20.78
2023-04-28T13:23:03.843Z,21.99
2023-04-28T13:25:31.484Z,22.23
2023-04-28T13:27:58.746Z,22.34
2023-04-28T13:30:26.972Z,22.49
2023-04-28T13:32:56.170Z,22.53
2023-04-28T13:35:25.502Z,22.61
2023-04-28T13:37:56.255Z,22.77
2023-04-28T13:40:24.342Z,22.75
2023-04-28T13:42:58.342Z,22.78
2023-04-28T13:45:27.318Z,22.90
2023-04-28T13:47:55.207Z,22.88
2023-04-28T13:50:23.485Z,22.45
2023-04-28T13:52:54.192Z,21.82
2023-04-28T13:55:34.839Z,21.44
2023-04-28T13:58:04.941Z,21.21
2023-04-28T14:00:37.568Z,20.95
2023-04-28T14:03:10.290Z,20.91
2023-04-28T14:05:49.492Z,20.62
2023-04-28T14:08:20.270Z,20.59
2023-04-28T14:10:48.782Z,20.40
2023-04-28T14:13:16.551Z,20.14
2023-04-28T14:15:51.338Z,20.01
2023-04-28T14:18:25.615Z,19.78
2023-04-28T14:20:59.645Z,19.62
2023-04-28T14:23:28.732Z,19.44
2023-04-28T14:25:58.668Z,19.21
2023-04-28T14:28:26.411Z,18.93
2023-04-28T14:31:05.507Z,18.87
2023-04-28T14:33:42.076Z,18.82
2023-04-28T14:36:23.265Z,18.61
2023-04-28T14:38:50.642Z,18.41
2023-04-28T14:41:18.131Z,18.24
2023-04-28T14:43:46.237Z,17.87
2023-04-28T14:46:13.558Z,17.66
2023-04-28T14:48:49.189Z,17.38
2023-04-28T14:51:17.191Z,16.93
2023-04-28T14:53:44.394Z,16.79
2023-04-28T14:56:19.096Z,16.40
2023-04-28T14:58:57.334Z,16.08
2023-04-28T15:01:24.871Z,15.52
2023-04-28T15:03:52.166Z,15.03
2023-04-28T15:06:22.622Z,14.61
2023-04-28T15:08:53.449Z,14.35
2023-04-28T15:11:25.721Z,14.02
2023-04-28T15:14:07.305Z,13.82
2023-04-28T15:16:34.548Z,13.71
2023-04-28T15:19:02.485Z,13.51
2023-04-28T15:21:29.897Z,13.37
2023-04-28T15:24:18.627Z,13.29
2023-04-28T15:26:46.337Z,13.22
2023-04-28T15:29:14.183Z,13.08
2023-04-28T15:31:47.496Z,12.87
2023-04-28T15:34:18.666Z,12.69
2023-04-28T15:36:54.463Z,12.58
2023-04-28T15:39:49.047Z,12.60
2023-04-28T15:42:34.709Z,12.47
2023-04-28T15:45:13.924Z,12.47
2023-04-28T15:47:45.839Z,12.41
2023-04-28T15:50:13.384Z,12.43
2023-04-28T15:53:26.375Z,12.45
2023-04-28T15:55:58.544Z,12.47
2023-04-28T15:58:26.000Z,12.44
2023-04-28T16:00:53.709Z,12.55
2023-04-28T16:03:21.990Z,12.62
2023-04-28T16:05:49.515Z,12.54
2023-04-28T16:08:36.254Z,12.57
2023-04-28T16:11:06.019Z,12.42
2023-04-28T16:13:38.597Z,12.33
2023-04-28T16:16:12.650Z,12.24
2023-04-28T16:18:47.170Z,12.15
2023-04-28T16:21:17.777Z,12.07
2023-04-28T16:23:47.943Z,11.98
2023-04-28T16:26:27.946Z,11.89
2023-04-28T16:29:33.043Z,11.74
2023-04-28T16:32:16.071Z,11.62
2023-04-28T16:34:44.788Z,11.62
2023-04-28T16:37:12.250Z,11.60
2023-04-28T16:39:43.706Z,11.46
2023-04-28T16:42:13.932Z,11.43
2023-04-28T16:44:47.212Z,11.43
2023-04-28T16:47:15.555Z,11.37
2023-04-28T16:49:46.060Z,11.16
2023-04-28T16:52:17.460Z,11.21
2023-04-28T16:54:57.843Z,11.21
2023-04-28T16:57:36.766Z,11.12
2023-04-28T17:00:05.729Z,10.97
2023-04-28T17:02:53.677Z,10.90
2023-04-28T17:06:02.485Z,10.72
2023-04-28T17:08:34.352Z,10.51
2023-04-28T17:11:21.508Z,10.38
2023-04-28T17:14:02.155Z,10.13
2023-04-28T17:16:48.120Z,9.89
2023-04-28T17:22:27.450Z,9.50
2023-04-28T17:25:04.103Z,9.28
2023-04-28T17:28:15.876Z,9.06
2023-04-28T17:30:47.409Z,8.83
2023-04-28T17:33:33.628Z,8.64
2023-04-28T17:36:16.821Z,8.43
2023-04-28T17:38:55.321Z,8.29
2023-04-28T17:42:01.748Z,8.11
2023-04-28T17:44:32.931Z,7.95
2023-04-28T17:47:02.735Z,7.82
2023-04-28T17:49:30.000Z,7.66
2023-04-28T17:52:00.926Z,7.50
2023-04-28T17:54:28.195Z,7.43
2023-04-28T17:56:56.299Z,7.37
2023-04-28T17:59:28.106Z,7.32
2023-04-28T18:01:56.516Z,7.23
2023-04-28T18:04:44.280Z,7.19
2023-04-28T18:07:12.247Z,7.12
2023-04-28T18:09:42.396Z,7.08
2023-04-28T18:12:10.075Z,6.99
2023-04-28T18:14:37.654Z,6.92
2023-04-28T18:17:08.701Z,6.84
2023-04-28T18:19:36.981Z,6.79
2023-04-28T18:22:04.643Z,6.71
2023-04-28T18:24:33.439Z,6.63
2023-04-28T18:27:00.710Z,6.51
2023-04-28T18:29:34.086Z,6.47
2023-04-28T18:32:07.138Z,6.42
2023-04-28T18:34:41.542Z,6.30
2023-04-28T18:37:09.742Z,6.24
2023-04-28T18:39:38.956Z,6.20
2023-04-28T18:42:10.205Z,6.12
2023-04-28T18:44:37.354Z,6.03
2023-04-28T18:47:04.834Z,5.96
2023-04-28T18:49:36.849Z,5.88
2023-04-28T18:52:04.901Z,5.79
2023-04-28T18:54:33.000Z,5.70
2023-04-28T18:57:06.069Z,5.62
2023-04-28T18:59:33.566Z,5.51
2023-04-28T19:02:03.398Z,5.47
2023-04-28T19:04:33.464Z,5.39
2023-04-28T19:07:03.926Z,5.32
2023-04-28T19:09:32.274Z,5.16
2023-04-28T19:11:59.770Z,5.08
2023-04-28T19:14:27.119Z,5.03
2023-04-28T19:16:55.382Z,4.96
2023-04-28T19:19:22.695Z,4.88
2023-04-28T19:21:53.527Z,4.83
2023-04-28T19:24:25.768Z,4.78
2023-04-28T19:26:54.397Z,4.70
2023-04-28T19:29:26.578Z,4.59
2023-04-28T19:31:57.300Z,4.50
2023-04-28T19:34:24.705Z,4.42
2023-04-28T19:37:00.600Z,4.34
2023-04-28T19:39:31.166Z,4.29
2023-04-28T19:42:07.720Z,4.27
2023-04-28T19:44:38.428Z,4.25
2023-04-28T19:47:08.274Z,4.19
2023-04-28T19:49:40.747Z,4.10
2023-04-28T19:52:10.469Z,4.03
2023-04-28T19:54:41.879Z,3.95
2023-04-28T19:57:09.723Z,3.86
2023-04-28T19:59:40.745Z,3.81
2023-04-28T20:02:08.938Z,3.74
2023-04-28T20:04:40.893Z,3.68
2023-04-28T20:07:10.980Z,3.65
2023-04-28T20:09:42.420Z,3.59
2023-04-28T20:12:09.839Z,3.55
2023-04-28T20:14:40.290Z,3.47
2023-04-28T20:17:13.714Z,3.36
2023-04-28T20:19:42.389Z,3.29
2023-04-28T20:22:10.311Z,3.24
2023-04-28T20:24:39.985Z,3.19
2023-04-28T20:27:14.600Z,3.16
2023-04-28T20:29:45.330Z,3.07
2023-04-28T20:32:15.703Z,3.02
2023-04-28T20:34:48.041Z,2.95
2023-04-28T20:37:17.150Z,2.88
2023-04-28T20:39:44.602Z,2.85
2023-04-28T20:42:12.149Z,2.81
2023-04-28T20:44:47.108Z,2.77
2023-04-28T20:47:14.684Z,2.71
2023-04-28T20:49:42.831Z,2.67
2023-04-28T20:52:10.305Z,2.59
2023-04-28T20:54:37.648Z,2.55
2023-04-28T20:57:10.081Z,2.54
2023-04-28T20:59:38.590Z,2.52
2023-04-28T21:02:10.513Z,2.48
2023-04-28T21:04:37.845Z,2.42
2023-04-28T21:07:05.625Z,2.39
2023-04-28T21:09:32.956Z,2.37
2023-04-28T21:12:00.460Z,2.40
2023-04-28T21:14:27.904Z,2.40
2023-04-28T21:16:54.960Z,2.39
2023-04-28T21:19:23.856Z,2.37
2023-04-28T21:21:53.527Z,2.36
2023-04-28T21:24:23.965Z,2.34
2023-04-28T21:26:52.266Z,2.33
2023-04-28T21:29:21.888Z,2.32
2023-04-28T21:31:52.140Z,2.32
2023-04-28T21:34:19.920Z,2.33
2023-04-28T21:36:47.342Z,2.31
2023-04-28T21:39:14.638Z,2.27
2023-04-28T21:41:44.725Z,2.25
2023-04-28T21:44:24.136Z,2.19
2023-04-28T21:46:52.063Z,2.11
2023-04-28T21:49:22.102Z,2.04
2023-04-28T21:51:49.955Z,1.99
2023-04-28T21:54:19.916Z,1.96
2023-04-28T21:56:47.537Z,1.92
2023-04-28T21:59:14.789Z,1.93
2023-04-28T22:01:42.384Z,1.94
2023-04-28T22:04:10.289Z,1.96
2023-04-28T22:06:37.694Z,1.98
2023-04-28T22:09:07.970Z,1.99
2023-04-28T22:11:41.302Z,2.00
2023-04-28T22:14:08.687Z,1.99
2023-04-28T22:16:36.779Z,2.01
2023-04-28T22:19:04.128Z,1.99
2023-04-28T22:21:34.824Z,1.97
2023-04-28T22:24:07.030Z,1.99
2023-04-28T22:26:37.679Z,1.99
2023-04-28T22:29:04.944Z,1.97
2023-04-28T22:31:32.514Z,1.96
2023-04-28T22:33:59.735Z,1.96
2023-04-28T22:36:32.029Z,1.93
2023-04-28T22:39:06.255Z,1.91
2023-04-28T22:41:33.434Z,1.92
2023-04-28T22:44:04.622Z,1.94
2023-04-28T22:46:32.240Z,1.96
2023-04-28T22:49:01.826Z,1.95
2023-04-28T22:51:30.382Z,2.01
2023-04-28T22:53:57.749Z,2.02
2023-04-28T22:56:25.155Z,2.05
2023-04-28T22:58:53.111Z,2.06
2023-04-28T23:01:21.085Z,2.07
2023-04-28T23:03:51.211Z,2.09
2023-04-28T23:06:18.590Z,2.11
2023-04-28T23:08:53.832Z,2.11
2023-04-28T23:11:24.706Z,2.10
2023-04-28T23:13:52.433Z,2.09
2023-04-28T23:16:20.038Z,2.08
2023-04-28T23:18:54.049Z,2.04
2023-04-28T23:21:21.881Z,2.01
2023-04-28T23:23:52.839Z,2.02
2023-04-28T23:26:20.954Z,2.00
2023-04-28T23:28:54.002Z,1.98
2023-04-28T23:31:22.608Z,1.98
2023-04-28T23:33:50.449Z,1.95
2023-04-28T23:36:17.502Z,1.92
2023-04-28T23:38:44.848Z,1.92
2023-04-28T23:41:12.477Z,1.89
2023-04-28T23:43:41.701Z,1.89
2023-04-28T23:46:10.134Z,1.88
2023-04-28T23:48:40.056Z,1.88
2023-04-28T23:51:12.395Z,1.89
2023-04-28T23:53:40.274Z,1.89
2023-04-28T23:56:10.228Z,1.87
2023-04-28T23:58:39.450Z,1.85
